sensor_id;sensor_type;location;lat;lon;timestamp;P1;durP1;ratioP1;P2;durP2;ratioP2
37945;SDS011;23769;52.478;13.448;2024-01-11T00:01:39;24.88;;;9.60;;
37945;SDS011;23769;52.478;13.448;2024-01-11T00:04:06;22.60;;;9.77;;
37945;SDS011;23769;52.478;13.448;2024-01-11T00:06:41;26.50;;;10.23;;
37945;SDS011;23769;52.478;13.448;2024-01-11T00:09:08;21.48;;;10.07;;
37945;SDS011;23769;52.478;13.448;2024-01-11T00:11:36;26.73;;;10.88;;
37945;SDS011;23769;52.478;13.448;2024-01-11T00:14:03;23.55;;;10.13;;
37945;SDS011;23769;52.478;13.448;2024-01-11T00:16:30;21.77;;;10.73;;
37945;SDS011;23769;52.478;13.448;2024-01-11T00:18:58;21.17;;;9.27;;
37945;SDS011;23769;52.478;13.448;2024-01-11T00:21:25;24.73;;;10.55;;
37945;SDS011;23769;52.478;13.448;2024-01-11T00:23:53;25.58;;;10.90;;
37945;SDS011;23769;52.478;13.448;2024-01-11T00:26:21;24.52;;;10.82;;
37945;SDS011;23769;52.478;13.448;2024-01-11T00:28:48;30.65;;;11.75;;
37945;SDS011;23769;52.478;13.448;2024-01-11T00:31:15;27.80;;;11.68;;
37945;SDS011;23769;52.478;13.448;2024-01-11T00:33:42;32.42;;;11.38;;
37945;SDS011;23769;52.478;13.448;2024-01-11T00:36:10;30.10;;;13.10;;
37945;SDS011;23769;52.478;13.448;2024-01-11T00:38:37;28.25;;;12.32;;
37945;SDS011;23769;52.478;13.448;2024-01-11T00:41:06;27.80;;;11.90;;
37945;SDS011;23769;52.478;13.448;2024-01-11T00:43:33;24.65;;;11.07;;
37945;SDS011;23769;52.478;13.448;2024-01-11T00:46:00;19.33;;;8.80;;
37945;SDS011;23769;52.478;13.448;2024-01-11T00:48:27;18.48;;;7.60;;
37945;SDS011;23769;52.478;13.448;2024-01-11T00:50:54;17.13;;;8.05;;
37945;SDS011;23769;52.478;13.448;2024-01-11T00:53:22;19.27;;;8.23;;
37945;SDS011;23769;52.478;13.448;2024-01-11T00:55:50;19.95;;;8.30;;
37945;SDS011;23769;52.478;13.448;2024-01-11T00:58:19;17.60;;;8.27;;
37945;SDS011;23769;52.478;13.448;2024-01-11T01:00:46;22.45;;;8.68;;
37945;SDS011;23769;52.478;13.448;2024-01-11T01:03:14;22.60;;;10.02;;
37945;SDS011;23769;52.478;13.448;2024-01-11T01:05:42;19.95;;;9.20;;
37945;SDS011;23769;52.478;13.448;2024-01-11T01:08:09;32.05;;;11.95;;
37945;SDS011;23769;52.478;13.448;2024-01-11T01:10:36;31.63;;;12.65;;
37945;SDS011;23769;52.478;13.448;2024-01-11T01:13:04;28.00;;;11.88;;
37945;SDS011;23769;52.478;13.448;2024-01-11T01:15:32;24.60;;;11.65;;
37945;SDS011;23769;52.478;13.448;2024-01-11T01:18:00;27.42;;;11.77;;
37945;SDS011;23769;52.478;13.448;2024-01-11T01:20:27;24.00;;;11.35;;
37945;SDS011;23769;52.478;13.448;2024-01-11T01:22:54;25.73;;;10.77;;
37945;SDS011;23769;52.478;13.448;2024-01-11T01:25:21;30.45;;;13.02;;
37945;SDS011;23769;52.478;13.448;2024-01-11T01:27:48;31.40;;;12.55;;
37945;SDS011;23769;52.478;13.448;2024-01-11T01:30:16;25.63;;;12.10;;
37945;SDS011;23769;52.478;13.448;2024-01-11T01:32:44;21.10;;;10.40;;
37945;SDS011;23769;52.478;13.448;2024-01-11T01:35:11;25.27;;;9.45;;
37945;SDS011;23769;52.478;13.448;2024-01-11T01:37:39;21.38;;;8.88;;
37945;SDS011;23769;52.478;13.448;2024-01-11T01:40:06;20.20;;;10.18;;
37945;SDS011;23769;52.478;13.448;2024-01-11T01:42:34;26.27;;;10.02;;
37945;SDS011;23769;52.478;13.448;2024-01-11T01:45:01;21.77;;;9.70;;
37945;SDS011;23769;52.478;13.448;2024-01-11T01:47:28;23.60;;;9.48;;
37945;SDS011;23769;52.478;13.448;2024-01-11T01:49:57;21.92;;;9.40;;
37945;SDS011;23769;52.478;13.448;2024-01-11T01:52:24;20.45;;;8.57;;
37945;SDS011;23769;52.478;13.448;2024-01-11T01:54:52;20.55;;;10.20;;
37945;SDS011;23769;52.478;13.448;2024-01-11T01:57:19;18.90;;;8.38;;
37945;SDS011;23769;52.478;13.448;2024-01-11T01:59:48;19.48;;;8.60;;
37945;SDS011;23769;52.478;13.448;2024-01-11T02:02:16;19.05;;;8.20;;
37945;SDS011;23769;52.478;13.448;2024-01-11T02:04:43;19.45;;;8.98;;
37945;SDS011;23769;52.478;13.448;2024-01-11T02:07:12;25.50;;;9.82;;
37945;SDS011;23769;52.478;13.448;2024-01-11T02:09:40;17.08;;;8.00;;
37945;SDS011;23769;52.478;13.448;2024-01-11T02:12:07;21.05;;;8.70;;
37945;SDS011;23769;52.478;13.448;2024-01-11T02:14:37;23.13;;;9.13;;
37945;SDS011;23769;52.478;13.448;2024-01-11T02:17:04;23.02;;;9.45;;
37945;SDS011;23769;52.478;13.448;2024-01-11T02:19:32;25.60;;;8.55;;
37945;SDS011;23769;52.478;13.448;2024-01-11T02:22:00;20.15;;;7.55;;
37945;SDS011;23769;52.478;13.448;2024-01-11T02:24:30;20.60;;;7.85;;
37945;SDS011;23769;52.478;13.448;2024-01-11T02:26:58;23.13;;;8.43;;
37945;SDS011;23769;52.478;13.448;2024-01-11T02:29:25;18.98;;;7.95;;
37945;SDS011;23769;52.478;13.448;2024-01-11T02:31:53;18.65;;;7.32;;
37945;SDS011;23769;52.478;13.448;2024-01-11T02:34:21;19.85;;;8.57;;
37945;SDS011;23769;52.478;13.448;2024-01-11T02:36:48;20.25;;;7.80;;
37945;SDS011;23769;52.478;13.448;2024-01-11T02:39:16;16.63;;;7.70;;
37945;SDS011;23769;52.478;13.448;2024-01-11T02:41:45;17.88;;;8.07;;
37945;SDS011;23769;52.478;13.448;2024-01-11T02:44:12;21.60;;;8.07;;
37945;SDS011;23769;52.478;13.448;2024-01-11T02:46:39;25.02;;;8.85;;
37945;SDS011;23769;52.478;13.448;2024-01-11T02:49:06;22.77;;;8.73;;
37945;SDS011;23769;52.478;13.448;2024-01-11T02:51:34;22.02;;;8.50;;
37945;SDS011;23769;52.478;13.448;2024-01-11T02:54:02;21.75;;;8.20;;
37945;SDS011;23769;52.478;13.448;2024-01-11T02:56:29;26.45;;;9.07;;
37945;SDS011;23769;52.478;13.448;2024-01-11T02:58:58;19.50;;;8.25;;
37945;SDS011;23769;52.478;13.448;2024-01-11T03:01:25;21.10;;;8.45;;
37945;SDS011;23769;52.478;13.448;2024-01-11T03:03:52;22.73;;;8.20;;
37945;SDS011;23769;52.478;13.448;2024-01-11T03:06:19;20.83;;;9.68;;
37945;SDS011;23769;52.478;13.448;2024-01-11T03:08:47;22.42;;;8.80;;
37945;SDS011;23769;52.478;13.448;2024-01-11T03:11:14;24.63;;;9.27;;
37945;SDS011;23769;52.478;13.448;2024-01-11T03:13:42;23.77;;;9.90;;
37945;SDS011;23769;52.478;13.448;2024-01-11T03:16:11;23.23;;;9.50;;
37945;SDS011;23769;52.478;13.448;2024-01-11T03:18:38;22.42;;;9.55;;
37945;SDS011;23769;52.478;13.448;2024-01-11T03:21:05;27.20;;;10.23;;
37945;SDS011;23769;52.478;13.448;2024-01-11T03:23:33;20.10;;;8.32;;
37945;SDS011;23769;52.478;13.448;2024-01-11T03:26:00;27.20;;;9.20;;
37945;SDS011;23769;52.478;13.448;2024-01-11T03:28:27;22.92;;;9.15;;
37945;SDS011;23769;52.478;13.448;2024-01-11T03:30:54;26.55;;;9.15;;
37945;SDS011;23769;52.478;13.448;2024-01-11T03:33:23;23.38;;;9.35;;
37945;SDS011;23769;52.478;13.448;2024-01-11T03:35:50;20.48;;;8.50;;
37945;SDS011;23769;52.478;13.448;2024-01-11T03:38:17;23.58;;;8.70;;
37945;SDS011;23769;52.478;13.448;2024-01-11T03:40:45;23.42;;;9.48;;
37945;SDS011;23769;52.478;13.448;2024-01-11T03:43:12;22.13;;;8.75;;
37945;SDS011;23769;52.478;13.448;2024-01-11T03:45:39;19.88;;;8.13;;
37945;SDS011;23769;52.478;13.448;2024-01-11T03:48:06;18.75;;;7.20;;
37945;SDS011;23769;52.478;13.448;2024-01-11T03:50:35;18.05;;;6.85;;
37945;SDS011;23769;52.478;13.448;2024-01-11T03:53:02;20.10;;;7.60;;
37945;SDS011;23769;52.478;13.448;2024-01-11T03:55:29;19.30;;;7.35;;
37945;SDS011;23769;52.478;13.448;2024-01-11T03:57:57;19.85;;;7.50;;
37945;SDS011;23769;52.478;13.448;2024-01-11T04:00:24;14.32;;;5.75;;
37945;SDS011;23769;52.478;13.448;2024-01-11T04:02:51;15.25;;;6.13;;
37945;SDS011;23769;52.478;13.448;2024-01-11T04:05:18;16.35;;;6.68;;
37945;SDS011;23769;52.478;13.448;2024-01-11T04:07:47;17.73;;;6.70;;
37945;SDS011;23769;52.478;13.448;2024-01-11T04:10:15;15.68;;;6.32;;
37945;SDS011;23769;52.478;13.448;2024-01-11T04:12:42;18.70;;;6.80;;
37945;SDS011;23769;52.478;13.448;2024-01-11T04:15:11;19.65;;;7.43;;
37945;SDS011;23769;52.478;13.448;2024-01-11T04:17:39;15.18;;;6.65;;
37945;SDS011;23769;52.478;13.448;2024-01-11T04:20:07;19.13;;;7.60;;
37945;SDS011;23769;52.478;13.448;2024-01-11T04:22:34;19.58;;;7.40;;
37945;SDS011;23769;52.478;13.448;2024-01-11T04:27:31;20.60;;;6.72;;
37945;SDS011;23769;52.478;13.448;2024-01-11T04:29:58;26.67;;;8.45;;
37945;SDS011;23769;52.478;13.448;2024-01-11T04:32:26;20.60;;;7.45;;
37945;SDS011;23769;52.478;13.448;2024-01-11T04:34:53;23.40;;;8.38;;
37945;SDS011;23769;52.478;13.448;2024-01-11T04:37:20;23.88;;;8.18;;
37945;SDS011;23769;52.478;13.448;2024-01-11T04:39:47;25.95;;;8.35;;
37945;SDS011;23769;52.478;13.448;2024-01-11T04:42:15;28.25;;;9.13;;
37945;SDS011;23769;52.478;13.448;2024-01-11T04:44:43;35.38;;;11.18;;
37945;SDS011;23769;52.478;13.448;2024-01-11T04:47:10;28.20;;;10.07;;
37945;SDS011;23769;52.478;13.448;2024-01-11T04:49:38;30.33;;;9.32;;
37945;SDS011;23769;52.478;13.448;2024-01-11T04:52:06;37.38;;;11.00;;
37945;SDS011;23769;52.478;13.448;2024-01-11T04:54:33;32.00;;;10.73;;
37945;SDS011;23769;52.478;13.448;2024-01-11T04:57:00;30.45;;;10.52;;
37945;SDS011;23769;52.478;13.448;2024-01-11T04:59:28;35.50;;;10.13;;
37945;SDS011;23769;52.478;13.448;2024-01-11T05:01:56;39.22;;;11.73;;
37945;SDS011;23769;52.478;13.448;2024-01-11T05:04:24;32.88;;;10.60;;
37945;SDS011;23769;52.478;13.448;2024-01-11T05:06:51;36.22;;;10.95;;
37945;SDS011;23769;52.478;13.448;2024-01-11T05:09:18;33.63;;;11.25;;
37945;SDS011;23769;52.478;13.448;2024-01-11T05:11:45;33.13;;;11.00;;
37945;SDS011;23769;52.478;13.448;2024-01-11T05:14:12;41.65;;;12.02;;
37945;SDS011;23769;52.478;13.448;2024-01-11T05:16:40;34.90;;;11.25;;
37945;SDS011;23769;52.478;13.448;2024-01-11T05:19:09;36.65;;;10.23;;
37945;SDS011;23769;52.478;13.448;2024-01-11T05:21:36;27.75;;;10.60;;
37945;SDS011;23769;52.478;13.448;2024-01-11T05:24:04;35.97;;;11.40;;
37945;SDS011;23769;52.478;13.448;2024-01-11T05:26:31;31.02;;;9.50;;
37945;SDS011;23769;52.478;13.448;2024-01-11T05:28:58;35.10;;;11.10;;
37945;SDS011;23769;52.478;13.448;2024-01-11T05:31:25;33.25;;;11.05;;
37945;SDS011;23769;52.478;13.448;2024-01-11T05:33:53;33.42;;;10.85;;
37945;SDS011;23769;52.478;13.448;2024-01-11T05:36:21;34.75;;;10.57;;
37945;SDS011;23769;52.478;13.448;2024-01-11T05:38:49;36.30;;;11.35;;
37945;SDS011;23769;52.478;13.448;2024-01-11T05:41:16;33.92;;;10.38;;
37945;SDS011;23769;52.478;13.448;2024-01-11T05:43:43;38.03;;;11.50;;
37945;SDS011;23769;52.478;13.448;2024-01-11T05:46:11;32.33;;;11.18;;
37945;SDS011;23769;52.478;13.448;2024-01-11T05:48:38;39.03;;;12.88;;
37945;SDS011;23769;52.478;13.448;2024-01-11T05:51:05;35.92;;;10.95;;
37945;SDS011;23769;52.478;13.448;2024-01-11T05:53:34;36.38;;;11.23;;
37945;SDS011;23769;52.478;13.448;2024-01-11T05:56:01;36.38;;;11.65;;
37945;SDS011;23769;52.478;13.448;2024-01-11T05:58:29;34.47;;;11.27;;
37945;SDS011;23769;52.478;13.448;2024-01-11T06:00:56;36.30;;;12.57;;
37945;SDS011;23769;52.478;13.448;2024-01-11T06:03:23;43.92;;;12.75;;
37945;SDS011;23769;52.478;13.448;2024-01-11T06:05:50;40.70;;;12.57;;
37945;SDS011;23769;52.478;13.448;2024-01-11T06:08:18;41.20;;;13.52;;
37945;SDS011;23769;52.478;13.448;2024-01-11T06:10:46;40.55;;;12.65;;
37945;SDS011;23769;52.478;13.448;2024-01-11T06:13:14;39.22;;;12.45;;
37945;SDS011;23769;52.478;13.448;2024-01-11T06:15:41;45.25;;;13.65;;
37945;SDS011;23769;52.478;13.448;2024-01-11T06:18:08;40.15;;;13.40;;
37945;SDS011;23769;52.478;13.448;2024-01-11T06:20:36;38.30;;;12.55;;
37945;SDS011;23769;52.478;13.448;2024-01-11T06:23:03;37.80;;;12.00;;
37945;SDS011;23769;52.478;13.448;2024-01-11T06:25:30;44.08;;;13.57;;
37945;SDS011;23769;52.478;13.448;2024-01-11T06:27:59;43.10;;;13.23;;
37945;SDS011;23769;52.478;13.448;2024-01-11T06:30:26;42.03;;;12.32;;
37945;SDS011;23769;52.478;13.448;2024-01-11T06:32:53;43.58;;;14.02;;
37945;SDS011;23769;52.478;13.448;2024-01-11T06:35:21;37.83;;;12.68;;
37945;SDS011;23769;52.478;13.448;2024-01-11T06:37:48;37.92;;;13.45;;
37945;SDS011;23769;52.478;13.448;2024-01-11T06:40:15;46.90;;;15.88;;
37945;SDS011;23769;52.478;13.448;2024-01-11T06:42:44;47.15;;;14.50;;
37945;SDS011;23769;52.478;13.448;2024-01-11T06:45:13;40.33;;;13.68;;
37945;SDS011;23769;52.478;13.448;2024-01-11T06:47:40;42.53;;;14.63;;
37945;SDS011;23769;52.478;13.448;2024-01-11T06:50:11;44.30;;;14.30;;
37945;SDS011;23769;52.478;13.448;2024-01-11T06:52:38;44.00;;;15.30;;
37945;SDS011;23769;52.478;13.448;2024-01-11T06:55:06;49.50;;;15.60;;
37945;SDS011;23769;52.478;13.448;2024-01-11T06:57:33;43.35;;;14.38;;
37945;SDS011;23769;52.478;13.448;2024-01-11T07:00:01;45.67;;;13.85;;
37945;SDS011;23769;52.478;13.448;2024-01-11T07:02:30;43.90;;;14.43;;
37945;SDS011;23769;52.478;13.448;2024-01-11T07:04:57;36.10;;;12.95;;
37945;SDS011;23769;52.478;13.448;2024-01-11T07:07:24;44.13;;;13.73;;
37945;SDS011;23769;52.478;13.448;2024-01-11T07:09:52;36.58;;;12.52;;
37945;SDS011;23769;52.478;13.448;2024-01-11T07:12:20;39.47;;;13.15;;
37945;SDS011;23769;52.478;13.448;2024-01-11T07:14:47;39.58;;;14.30;;
37945;SDS011;23769;52.478;13.448;2024-01-11T07:17:15;44.13;;;14.60;;
37945;SDS011;23769;52.478;13.448;2024-01-11T07:19:43;36.25;;;13.13;;
37945;SDS011;23769;52.478;13.448;2024-01-11T07:22:11;45.78;;;14.68;;
37945;SDS011;23769;52.478;13.448;2024-01-11T07:24:38;40.45;;;12.82;;
37945;SDS011;23769;52.478;13.448;2024-01-11T07:27:05;41.58;;;16.30;;
37945;SDS011;23769;52.478;13.448;2024-01-11T07:29:33;54.33;;;18.35;;
37945;SDS011;23769;52.478;13.448;2024-01-11T07:32:00;42.72;;;13.98;;
37945;SDS011;23769;52.478;13.448;2024-01-11T07:34:29;42.55;;;15.05;;
37945;SDS011;23769;52.478;13.448;2024-01-11T07:36:57;47.30;;;15.60;;
37945;SDS011;23769;52.478;13.448;2024-01-11T07:39:24;50.60;;;14.85;;
37945;SDS011;23769;52.478;13.448;2024-01-11T07:41:52;43.35;;;15.15;;
37945;SDS011;23769;52.478;13.448;2024-01-11T07:44:19;51.90;;;15.93;;
37945;SDS011;23769;52.478;13.448;2024-01-11T07:46:46;55.90;;;16.23;;
37945;SDS011;23769;52.478;13.448;2024-01-11T07:49:14;46.63;;;15.80;;
37945;SDS011;23769;52.478;13.448;2024-01-11T07:51:41;52.30;;;15.95;;
37945;SDS011;23769;52.478;13.448;2024-01-11T07:54:10;48.95;;;16.75;;
37945;SDS011;23769;52.478;13.448;2024-01-11T07:56:37;44.60;;;15.07;;
37945;SDS011;23769;52.478;13.448;2024-01-11T07:59:05;46.53;;;15.13;;
37945;SDS011;23769;52.478;13.448;2024-01-11T08:01:32;41.83;;;14.40;;
37945;SDS011;23769;52.478;13.448;2024-01-11T08:04:00;43.83;;;15.55;;
37945;SDS011;23769;52.478;13.448;2024-01-11T08:06:28;45.78;;;14.73;;
37945;SDS011;23769;52.478;13.448;2024-01-11T08:08:55;51.00;;;15.68;;
37945;SDS011;23769;52.478;13.448;2024-01-11T08:11:24;46.28;;;14.02;;
37945;SDS011;23769;52.478;13.448;2024-01-11T08:13:51;44.92;;;14.60;;
37945;SDS011;23769;52.478;13.448;2024-01-11T08:16:19;46.20;;;16.70;;
37945;SDS011;23769;52.478;13.448;2024-01-11T08:18:47;46.20;;;16.90;;
37945;SDS011;23769;52.478;13.448;2024-01-11T08:21:14;46.70;;;15.80;;
37945;SDS011;23769;52.478;13.448;2024-01-11T08:23:42;52.25;;;16.20;;
37945;SDS011;23769;52.478;13.448;2024-01-11T08:26:11;44.53;;;15.82;;
37945;SDS011;23769;52.478;13.448;2024-01-11T08:28:40;42.75;;;14.75;;
37945;SDS011;23769;52.478;13.448;2024-01-11T08:31:07;43.17;;;14.35;;
37945;SDS011;23769;52.478;13.448;2024-01-11T08:33:34;48.38;;;16.67;;
37945;SDS011;23769;52.478;13.448;2024-01-11T08:36:02;45.30;;;15.35;;
37945;SDS011;23769;52.478;13.448;2024-01-11T08:38:29;47.75;;;16.55;;
37945;SDS011;23769;52.478;13.448;2024-01-11T08:40:57;46.42;;;15.23;;
37945;SDS011;23769;52.478;13.448;2024-01-11T08:43:25;41.28;;;14.95;;
37945;SDS011;23769;52.478;13.448;2024-01-11T08:45:53;38.35;;;14.00;;
37945;SDS011;23769;52.478;13.448;2024-01-11T08:48:21;46.33;;;15.75;;
37945;SDS011;23769;52.478;13.448;2024-01-11T08:50:48;38.60;;;14.45;;
37945;SDS011;23769;52.478;13.448;2024-01-11T08:53:15;41.65;;;15.13;;
37945;SDS011;23769;52.478;13.448;2024-01-11T08:55:43;39.92;;;13.75;;
37945;SDS011;23769;52.478;13.448;2024-01-11T08:58:10;45.08;;;15.48;;
37945;SDS011;23769;52.478;13.448;2024-01-11T09:00:37;46.92;;;14.27;;
37945;SDS011;23769;52.478;13.448;2024-01-11T09:03:06;44.00;;;16.00;;
37945;SDS011;23769;52.478;13.448;2024-01-11T09:05:33;43.30;;;14.48;;
37945;SDS011;23769;52.478;13.448;2024-01-11T09:08:01;41.58;;;15.77;;
37945;SDS011;23769;52.478;13.448;2024-01-11T09:10:32;43.97;;;14.93;;
37945;SDS011;23769;52.478;13.448;2024-01-11T09:12:59;39.40;;;14.90;;
37945;SDS011;23769;52.478;13.448;2024-01-11T09:15:27;44.47;;;16.23;;
37945;SDS011;23769;52.478;13.448;2024-01-11T09:17:54;42.97;;;14.43;;
37945;SDS011;23769;52.478;13.448;2024-01-11T09:20:23;35.75;;;14.35;;
37945;SDS011;23769;52.478;13.448;2024-01-11T09:22:50;37.17;;;14.98;;
37945;SDS011;23769;52.478;13.448;2024-01-11T09:25:17;40.38;;;14.63;;
37945;SDS011;23769;52.478;13.448;2024-01-11T09:27:44;38.85;;;14.88;;
37945;SDS011;23769;52.478;13.448;2024-01-11T09:30:12;40.58;;;15.48;;
37945;SDS011;23769;52.478;13.448;2024-01-11T09:32:39;35.05;;;14.00;;
37945;SDS011;23769;52.478;13.448;2024-01-11T09:35:07;39.15;;;14.35;;
37945;SDS011;23769;52.478;13.448;2024-01-11T09:37:35;39.10;;;16.08;;
37945;SDS011;23769;52.478;13.448;2024-01-11T09:40:03;40.90;;;14.65;;
37945;SDS011;23769;52.478;13.448;2024-01-11T09:42:35;35.63;;;13.85;;
37945;SDS011;23769;52.478;13.448;2024-01-11T09:45:04;37.42;;;14.10;;
37945;SDS011;23769;52.478;13.448;2024-01-11T09:47:34;37.15;;;14.00;;
37945;SDS011;23769;52.478;13.448;2024-01-11T09:50:01;40.28;;;16.10;;
37945;SDS011;23769;52.478;13.448;2024-01-11T09:52:29;39.95;;;16.20;;
37945;SDS011;23769;52.478;13.448;2024-01-11T09:54:58;39.03;;;14.95;;
37945;SDS011;23769;52.478;13.448;2024-01-11T09:57:28;39.45;;;15.32;;
37945;SDS011;23769;52.478;13.448;2024-01-11T09:59:56;39.90;;;15.73;;
37945;SDS011;23769;52.478;13.448;2024-01-11T10:02:23;42.78;;;16.10;;
37945;SDS011;23769;52.478;13.448;2024-01-11T10:04:51;43.25;;;15.45;;
37945;SDS011;23769;52.478;13.448;2024-01-11T10:07:19;38.05;;;16.05;;
37945;SDS011;23769;52.478;13.448;2024-01-11T10:09:48;41.28;;;16.17;;
37945;SDS011;23769;52.478;13.448;2024-01-11T10:12:17;38.63;;;15.43;;
37945;SDS011;23769;52.478;13.448;2024-01-11T10:14:46;39.83;;;15.73;;
37945;SDS011;23769;52.478;13.448;2024-01-11T10:17:13;37.35;;;15.73;;
37945;SDS011;23769;52.478;13.448;2024-01-11T10:19:41;35.90;;;15.40;;
37945;SDS011;23769;52.478;13.448;2024-01-11T10:22:09;42.30;;;15.55;;
37945;SDS011;23769;52.478;13.448;2024-01-11T10:24:38;41.38;;;16.38;;
37945;SDS011;23769;52.478;13.448;2024-01-11T10:27:05;41.58;;;16.52;;
37945;SDS011;23769;52.478;13.448;2024-01-11T10:29:36;39.35;;;15.65;;
37945;SDS011;23769;52.478;13.448;2024-01-11T10:32:04;43.88;;;16.42;;
37945;SDS011;23769;52.478;13.448;2024-01-11T10:34:31;41.83;;;16.67;;
37945;SDS011;23769;52.478;13.448;2024-01-11T10:36:59;39.03;;;15.93;;
37945;SDS011;23769;52.478;13.448;2024-01-11T10:39:26;50.25;;;19.13;;
37945;SDS011;23769;52.478;13.448;2024-01-11T10:41:56;44.08;;;18.58;;
37945;SDS011;23769;52.478;13.448;2024-01-11T10:44:29;49.55;;;17.85;;
37945;SDS011;23769;52.478;13.448;2024-01-11T10:47:02;42.35;;;18.60;;
37945;SDS011;23769;52.478;13.448;2024-01-11T10:49:31;46.70;;;18.35;;
37945;SDS011;23769;52.478;13.448;2024-01-11T10:52:00;39.60;;;16.33;;
37945;SDS011;23769;52.478;13.448;2024-01-11T10:54:27;41.58;;;16.38;;
37945;SDS011;23769;52.478;13.448;2024-01-11T10:56:56;42.13;;;17.80;;
37945;SDS011;23769;52.478;13.448;2024-01-11T10:59:24;39.72;;;17.25;;
37945;SDS011;23769;52.478;13.448;2024-01-11T11:01:52;41.30;;;16.05;;
37945;SDS011;23769;52.478;13.448;2024-01-11T11:04:22;48.72;;;20.13;;
37945;SDS011;23769;52.478;13.448;2024-01-11T11:06:50;44.88;;;18.27;;
37945;SDS011;23769;52.478;13.448;2024-01-11T11:09:18;46.38;;;18.52;;
37945;SDS011;23769;52.478;13.448;2024-01-11T11:11:46;44.80;;;18.25;;
37945;SDS011;23769;52.478;13.448;2024-01-11T11:14:13;43.08;;;17.27;;
37945;SDS011;23769;52.478;13.448;2024-01-11T11:16:42;43.05;;;17.38;;
37945;SDS011;23769;52.478;13.448;2024-01-11T11:19:11;43.88;;;16.63;;
37945;SDS011;23769;52.478;13.448;2024-01-11T11:21:43;46.70;;;17.35;;
37945;SDS011;23769;52.478;13.448;2024-01-11T11:24:10;39.13;;;16.85;;
37945;SDS011;23769;52.478;13.448;2024-01-11T11:26:37;42.40;;;18.63;;
37945;SDS011;23769;52.478;13.448;2024-01-11T11:29:04;44.75;;;16.65;;
37945;SDS011;23769;52.478;13.448;2024-01-11T11:31:35;42.42;;;17.15;;
37945;SDS011;23769;52.478;13.448;2024-01-11T11:34:03;45.80;;;17.55;;
37945;SDS011;23769;52.478;13.448;2024-01-11T11:36:31;45.03;;;17.50;;
37945;SDS011;23769;52.478;13.448;2024-01-11T11:39:01;46.55;;;17.80;;
37945;SDS011;23769;52.478;13.448;2024-01-11T11:41:30;45.65;;;17.70;;
37945;SDS011;23769;52.478;13.448;2024-01-11T11:44:00;45.95;;;17.95;;
37945;SDS011;23769;52.478;13.448;2024-01-11T11:46:28;44.28;;;16.38;;
37945;SDS011;23769;52.478;13.448;2024-01-11T11:48:56;48.08;;;18.83;;
37945;SDS011;23769;52.478;13.448;2024-01-11T11:51:24;48.90;;;19.20;;
37945;SDS011;23769;52.478;13.448;2024-01-11T11:53:53;44.53;;;17.92;;
37945;SDS011;23769;52.478;13.448;2024-01-11T11:56:22;41.38;;;17.00;;
37945;SDS011;23769;52.478;13.448;2024-01-11T11:58:49;42.13;;;16.98;;
37945;SDS011;23769;52.478;13.448;2024-01-11T12:01:19;45.25;;;16.98;;
37945;SDS011;23769;52.478;13.448;2024-01-11T12:03:47;37.42;;;15.40;;
37945;SDS011;23769;52.478;13.448;2024-01-11T12:06:15;36.53;;;15.50;;
37945;SDS011;23769;52.478;13.448;2024-01-11T12:08:43;42.67;;;16.38;;
37945;SDS011;23769;52.478;13.448;2024-01-11T12:11:12;41.35;;;15.40;;
37945;SDS011;23769;52.478;13.448;2024-01-11T12:13:41;37.83;;;16.00;;
37945;SDS011;23769;52.478;13.448;2024-01-11T12:16:09;34.10;;;15.60;;
37945;SDS011;23769;52.478;13.448;2024-01-11T12:18:36;38.88;;;16.02;;
37945;SDS011;23769;52.478;13.448;2024-01-11T12:21:04;34.72;;;16.02;;
37945;SDS011;23769;52.478;13.448;2024-01-11T12:23:33;38.58;;;16.15;;
37945;SDS011;23769;52.478;13.448;2024-01-11T12:26:01;38.75;;;17.35;;
37945;SDS011;23769;52.478;13.448;2024-01-11T12:28:29;34.60;;;15.35;;
37945;SDS011;23769;52.478;13.448;2024-01-11T12:30:57;34.08;;;14.85;;
37945;SDS011;23769;52.478;13.448;2024-01-11T12:33:25;32.47;;;14.80;;
37945;SDS011;23769;52.478;13.448;2024-01-11T12:35:53;36.17;;;15.35;;
37945;SDS011;23769;52.478;13.448;2024-01-11T12:38:20;37.15;;;16.02;;
37945;SDS011;23769;52.478;13.448;2024-01-11T12:40:47;36.03;;;15.77;;
37945;SDS011;23769;52.478;13.448;2024-01-11T12:43:15;33.03;;;15.00;;
37945;SDS011;23769;52.478;13.448;2024-01-11T12:45:43;35.03;;;14.13;;
37945;SDS011;23769;52.478;13.448;2024-01-11T12:48:11;31.35;;;15.00;;
37945;SDS011;23769;52.478;13.448;2024-01-11T12:50:41;38.97;;;17.10;;
37945;SDS011;23769;52.478;13.448;2024-01-11T12:53:09;39.60;;;16.48;;
37945;SDS011;23769;52.478;13.448;2024-01-11T12:55:43;35.47;;;16.58;;
37945;SDS011;23769;52.478;13.448;2024-01-11T12:58:10;36.70;;;15.75;;
37945;SDS011;23769;52.478;13.448;2024-01-11T13:00:37;40.55;;;17.38;;
37945;SDS011;23769;52.478;13.448;2024-01-11T13:03:05;38.80;;;16.08;;
37945;SDS011;23769;52.478;13.448;2024-01-11T13:05:34;33.50;;;15.32;;
37945;SDS011;23769;52.478;13.448;2024-01-11T13:08:02;34.88;;;16.08;;
37945;SDS011;23769;52.478;13.448;2024-01-11T13:10:30;36.08;;;15.98;;
37945;SDS011;23769;52.478;13.448;2024-01-11T13:12:58;39.58;;;17.70;;
37945;SDS011;23769;52.478;13.448;2024-01-11T13:15:26;38.95;;;16.23;;
37945;SDS011;23769;52.478;13.448;2024-01-11T13:17:56;42.15;;;18.13;;
37945;SDS011;23769;52.478;13.448;2024-01-11T13:20:24;37.33;;;16.33;;
37945;SDS011;23769;52.478;13.448;2024-01-11T13:23:00;34.20;;;15.43;;
37945;SDS011;23769;52.478;13.448;2024-01-11T13:25:38;33.38;;;15.15;;
37945;SDS011;23769;52.478;13.448;2024-01-11T13:28:05;31.00;;;14.55;;
37945;SDS011;23769;52.478;13.448;2024-01-11T13:30:33;34.00;;;14.98;;
37945;SDS011;23769;52.478;13.448;2024-01-11T13:33:00;33.53;;;14.93;;
37945;SDS011;23769;52.478;13.448;2024-01-11T13:35:27;33.47;;;13.88;;
37945;SDS011;23769;52.478;13.448;2024-01-11T13:37:56;33.28;;;15.75;;
37945;SDS011;23769;52.478;13.448;2024-01-11T13:40:23;31.33;;;15.18;;
37945;SDS011;23769;52.478;13.448;2024-01-11T13:42:53;34.53;;;14.80;;
37945;SDS011;23769;52.478;13.448;2024-01-11T13:45:21;39.22;;;18.65;;
37945;SDS011;23769;52.478;13.448;2024-01-11T13:47:48;39.20;;;14.65;;
37945;SDS011;23769;52.478;13.448;2024-01-11T13:50:15;41.40;;;17.40;;
37945;SDS011;23769;52.478;13.448;2024-01-11T13:52:43;40.65;;;16.33;;
37945;SDS011;23769;52.478;13.448;2024-01-11T13:55:12;38.20;;;16.08;;
37945;SDS011;23769;52.478;13.448;2024-01-11T13:57:39;41.78;;;17.17;;
37945;SDS011;23769;52.478;13.448;2024-01-11T14:00:08;41.92;;;18.13;;
37945;SDS011;23769;52.478;13.448;2024-01-11T14:02:37;36.50;;;15.18;;
37945;SDS011;23769;52.478;13.448;2024-01-11T14:05:06;34.38;;;14.52;;
37945;SDS011;23769;52.478;13.448;2024-01-11T14:07:36;34.67;;;14.10;;
37945;SDS011;23769;52.478;13.448;2024-01-11T14:10:04;34.50;;;15.20;;
37945;SDS011;23769;52.478;13.448;2024-01-11T14:12:34;32.88;;;16.17;;
37945;SDS011;23769;52.478;13.448;2024-01-11T14:15:02;30.33;;;13.77;;
37945;SDS011;23769;52.478;13.448;2024-01-11T14:17:30;39.83;;;17.48;;